Time;durP1;ratioP1;P1;durP2;ratioP2;P2;SDS_P1;SDS_P2;PMS_P1;PMS_P2;Temp;Humidity;BMP_temperature;BMP_pressure;BME280_temperature;BME280_humidity;BME280_pressure;Samples;Min_cycle;Max_cycle;Signal;HPM_P1;HPM_P2
2021/09/02 00:02:24;;;;;;;0.87;0.50;;;17.10;95.70;;;;;;5098241;27;20012;-83
2021/09/02 00:04:50;;;;;;;0.50;0.50;;;17.10;96.20;;;;;;5104371;27;20031;-83
2021/09/02 00:07:16;;;;;;;0.10;0.10;;;16.90;96.60;;;;;;5104193;28;20039;-83
2021/09/02 00:09:41;;;;;;;0.10;0.10;;;17.00;96.70;;;;;;5103593;27;20078;-82
2021/09/02 00:12:07;;;;;;;10.77;0.90;;;17.00;96.80;;;;;;5104457;28;20102;-82
2021/09/02 00:14:35;;;;;;;7.17;1.73;;;16.90;96.90;;;;;;5105702;27;20043;-83
2021/09/02 00:17:00;;;;;;;1.58;0.75;;;16.90;96.90;;;;;;5107069;27;20059;-83
2021/09/02 00:19:26;;;;;;;0.33;0.27;;;16.80;97.30;;;;;;5102038;28;20637;-83
2021/09/02 00:21:52;;;;;;;0.30;0.30;;;16.70;97.50;;;;;;5104714;28;20027;-83
2021/09/02 00:24:17;;;;;;;0.90;0.23;;;16.80;97.30;;;;;;5104198;27;20027;-84
2021/09/02 00:26:43;;;;;;;0.20;0.20;;;16.90;97.20;;;;;;5100412;28;20417;-84
2021/09/02 00:29:10;;;;;;;0.53;0.43;;;16.80;97.40;;;;;;5100174;28;20036;-84
2021/09/02 00:31:35;;;;;;;0.38;0.38;;;16.70;97.70;;;;;;5104412;27;20026;-85
2021/09/02 00:34:01;;;;;;;0.57;0.57;;;16.70;98.00;;;;;;5103159;28;20044;-84
2021/09/02 00:36:27;;;;;;;0.20;0.20;;;16.70;98.10;;;;;;5117358;27;20042;-84
2021/09/02 00:38:52;;;;;;;0.33;0.33;;;16.80;99.10;;;;;;5111833;27;20023;-84
2021/09/02 00:41:18;;;;;;;0.10;0.10;;;16.70;98.20;;;;;;5098227;28;20742;-85
2021/09/02 00:43:44;;;;;;;0.67;0.67;;;16.50;98.40;;;;;;5100644;28;20024;-85
2021/09/02 00:46:17;;;;;;;1.30;0.97;;;16.50;98.60;;;;;;5102035;27;20079;-86
2021/09/02 00:48:47;;;;;;;0.43;0.43;;;16.50;98.60;;;;;;5108676;27;20051;-84
2021/09/02 00:51:15;;;;;;;0.10;0.10;;;16.50;99.10;;;;;;5100902;27;20034;-83
2021/09/02 00:53:42;;;;;;;0.93;0.93;;;16.50;99.10;;;;;;5102792;27;20038;-86
2021/09/02 00:56:08;;;;;;;2.30;0.45;;;16.50;99.00;;;;;;5104583;27;20047;-84
2021/09/02 00:58:35;;;;;;;0.50;0.50;;;16.40;99.40;;;;;;5100115;28;20102;-84
2021/09/02 01:01:00;;;;;;;0.88;0.70;;;16.40;99.60;;;;;;5102974;27;20027;-84
2021/09/02 01:03:26;;;;;;;0.53;0.53;;;16.50;99.30;;;;;;5103732;28;20027;-85
2021/09/02 01:05:52;;;;;;;0.50;0.50;;;16.60;99.40;;;;;;5101411;27;20097;-85
2021/09/02 01:08:19;;;;;;;0.77;0.67;;;16.50;99.30;;;;;;5098714;28;20027;-84
2021/09/02 01:10:49;;;;;;;0.13;0.13;;;16.50;99.60;;;;;;5102828;28;20060;-84
2021/09/02 01:13:15;;;;;;;0.73;0.32;;;16.50;99.30;;;;;;5102276;28;20100;-85
2021/09/02 01:15:40;;;;;;;1.35;0.47;;;16.40;99.80;;;;;;5104826;28;20042;-85
2021/09/02 01:18:06;;;;;;;0.23;0.23;;;16.30;99.90;;;;;;5102339;27;20036;-84
2021/09/02 01:20:32;;;;;;;0.17;0.17;;;16.50;99.40;;;;;;5095182;27;20024;-84
2021/09/02 01:23:03;;;;;;;0.50;0.50;;;16.30;99.90;;;;;;5102704;27;20040;-83
2021/09/02 01:25:31;;;;;;;0.60;0.60;;;16.20;99.90;;;;;;5103661;27;20058;-84
2021/09/02 01:28:05;;;;;;;0.38;0.38;;;16.30;99.90;;;;;;5103125;27;20111;-83
2021/09/02 01:30:33;;;;;;;0.55;0.52;;;16.40;99.90;;;;;;5110436;27;20032;-85
2021/09/02 01:32:59;;;;;;;0.63;0.63;;;16.30;99.90;;;;;;5104103;27;20039;-84
2021/09/02 01:35:26;;;;;;;0.47;0.20;;;16.50;99.80;;;;;;5095110;28;20040;-84
2021/09/02 01:37:57;;;;;;;0.30;0.30;;;16.20;99.90;;;;;;5100367;27;20115;-84
2021/09/02 01:40:26;;;;;;;1.55;0.60;;;16.30;99.90;;;;;;5098362;28;20490;-85
2021/09/02 01:42:52;;;;;;;0.22;0.20;;;16.30;99.90;;;;;;5102975;27;20034;-85
2021/09/02 01:45:19;;;;;;;0.50;0.50;;;16.10;99.90;;;;;;5097982;28;20023;-84
2021/09/02 01:47:45;;;;;;;0.75;0.75;;;16.30;99.90;;;;;;5099524;27;20114;-84
2021/09/02 01:50:21;;;;;;;0.20;0.20;;;16.20;99.90;;;;;;5098647;28;20204;-84
2021/09/02 01:52:48;;;;;;;0.10;0.10;;;16.20;99.90;;;;;;5102508;27;20036;-84
2021/09/02 01:55:14;;;;;;;0.50;0.50;;;16.20;99.90;;;;;;5101642;28;20573;-84
2021/09/02 01:57:41;;;;;;;0.20;0.20;;;16.30;99.90;;;;;;5101814;28;20069;-83
2021/09/02 02:00:11;;;;;;;0.10;0.10;;;16.30;99.90;;;;;;5107777;27;20798;-84
2021/09/02 02:02:37;;;;;;;0.40;0.40;;;16.10;99.90;;;;;;5124653;27;20039;-83
2021/09/02 02:05:03;;;;;;;0.32;0.32;;;16.00;99.90;;;;;;5092900;28;20035;-85
2021/09/02 02:07:29;;;;;;;0.10;0.10;;;15.90;99.90;;;;;;5099264;27;20132;-83
2021/09/02 02:09:55;;;;;;;0.63;0.63;;;15.90;99.90;;;;;;5102929;27;20501;-84
2021/09/02 02:12:20;;;;;;;1.03;0.57;;;16.00;99.90;;;;;;5104697;28;20076;-85
2021/09/02 02:14:46;;;;;;;0.30;0.30;;;15.80;99.90;;;;;;5102217;28;20145;-84
2021/09/02 02:17:12;;;;;;;0.20;0.20;;;15.80;99.90;;;;;;5099495;28;20115;-84
2021/09/02 02:19:38;;;;;;;0.13;0.13;;;15.90;99.90;;;;;;5097729;28;20024;-84
2021/09/02 02:22:04;;;;;;;0.90;0.90;;;15.80;99.90;;;;;;5100875;28;20023;-84
2021/09/02 02:24:30;;;;;;;1.33;1.13;;;15.80;99.90;;;;;;5101080;28;20024;-84
2021/09/02 02:26:55;;;;;;;0.20;0.20;;;15.80;99.90;;;;;;5093762;28;20131;-84
2021/09/02 02:29:21;;;;;;;0.13;0.13;;;15.90;99.90;;;;;;5102605;27;20652;-83
2021/09/02 02:31:47;;;;;;;0.57;0.43;;;15.90;99.90;;;;;;5098736;28;20442;-85
2021/09/02 02:34:13;;;;;;;0.20;0.20;;;15.70;99.90;;;;;;5102681;27;20030;-85
2021/09/02 02:36:38;;;;;;;0.47;0.47;;;15.80;99.90;;;;;;5093000;28;20036;-86
2021/09/02 02:39:04;;;;;;;0.30;0.30;;;15.80;99.90;;;;;;5104999;27;20027;-86
2021/09/02 02:41:30;;;;;;;0.63;0.43;;;15.70;99.90;;;;;;5091753;28;20032;-86
2021/09/02 02:43:56;;;;;;;0.27;0.27;;;15.70;99.90;;;;;;5095981;27;20046;-87
2021/09/02 02:46:21;;;;;;;0.97;0.53;;;15.70;99.90;;;;;;5106181;28;20023;-87
2021/09/02 02:48:47;;;;;;;0.00;0.00;;;15.70;99.90;;;;;;5116740;27;20038;-87
2021/09/02 02:51:13;;;;;;;0.20;0.20;;;15.60;99.90;;;;;;5099523;28;20050;-83
2021/09/02 02:53:39;;;;;;;0.17;0.17;;;15.60;99.90;;;;;;5098510;28;20459;-87
2021/09/02 02:56:05;;;;;;;0.50;0.50;;;15.80;99.90;;;;;;5097694;28;20043;-87
2021/09/02 02:58:31;;;;;;;0.43;0.20;;;15.80;99.90;;;;;;5108941;28;20042;-86
2021/09/02 03:00:57;;;;;;;0.30;0.30;;;15.70;99.90;;;;;;5101510;27;20113;-86
2021/09/02 03:03:22;;;;;;;0.27;0.27;;;15.70;99.90;;;;;;5102125;28;20076;-85
2021/09/02 03:05:48;;;;;;;0.33;0.30;;;15.70;99.90;;;;;;5096559;28;20398;-86
2021/09/02 03:08:13;;;;;;;0.60;0.60;;;15.80;99.90;;;;;;5097003;28;20393;-86
2021/09/02 03:10:39;;;;;;;0.73;0.37;;;15.70;99.90;;;;;;5102472;28;20535;-84
2021/09/02 03:13:05;;;;;;;0.23;0.23;;;15.70;99.90;;;;;;5104540;28;20032;-86
2021/09/02 03:15:31;;;;;;;1.43;0.80;;;15.60;99.90;;;;;;5102924;28;20045;-84
2021/09/02 03:17:57;;;;;;;0.73;0.27;;;15.50;99.90;;;;;;5102371;27;20038;-83
2021/09/02 03:20:23;;;;;;;0.35;0.35;;;15.50;99.90;;;;;;5111394;27;20080;-84
2021/09/02 03:22:48;;;;;;;0.10;0.10;;;15.40;99.90;;;;;;5112424;27;20044;-84
2021/09/02 03:25:14;;;;;;;0.27;0.27;;;15.40;99.90;;;;;;5105716;27;20069;-84
2021/09/02 03:27:40;;;;;;;3.07;0.30;;;15.50;99.90;;;;;;5104002;27;20035;-84
2021/09/02 03:30:07;;;;;;;0.45;0.45;;;15.50;99.90;;;;;;5105134;27;20038;-87
2021/09/02 03:32:33;;;;;;;0.50;0.50;;;15.40;99.90;;;;;;5103193;27;20070;-86
2021/09/02 03:34:59;;;;;;;0.23;0.23;;;15.50;99.90;;;;;;5098624;27;20059;-87
2021/09/02 03:37:25;;;;;;;0.27;0.27;;;15.50;99.90;;;;;;5106201;27;20568;-85
2021/09/02 03:39:50;;;;;;;0.67;0.67;;;15.50;99.90;;;;;;5106258;28;20646;-86
2021/09/02 03:42:16;;;;;;;0.10;0.10;;;15.40;99.90;;;;;;5102835;28;20031;-87
2021/09/02 03:44:42;;;;;;;0.17;0.17;;;15.50;99.90;;;;;;5103038;28;20134;-86
2021/09/02 03:47:08;;;;;;;0.43;0.43;;;15.40;99.90;;;;;;5102304;28;20407;-83
2021/09/02 03:49:33;;;;;;;0.27;0.27;;;15.40;99.90;;;;;;5100915;28;20023;-84
2021/09/02 03:51:59;;;;;;;0.30;0.30;;;15.40;99.90;;;;;;5119790;27;20051;-87
2021/09/02 03:54:24;;;;;;;0.30;0.30;;;15.30;99.90;;;;;;5104199;27;20513;-86
2021/09/02 03:56:50;;;;;;;0.10;0.10;;;15.30;99.90;;;;;;5105461;27;20051;-86
2021/09/02 03:59:16;;;;;;;0.47;0.47;;;15.30;99.90;;;;;;5098215;28;20036;-87
2021/09/02 04:01:42;;;;;;;0.10;0.10;;;15.40;99.90;;;;;;5099831;28;20044;-87
2021/09/02 04:04:07;;;;;;;0.33;0.33;;;15.50;99.90;;;;;;5097617;28;20028;-86
2021/09/02 04:06:33;;;;;;;5.33;1.50;;;15.40;99.90;;;;;;5101558;27;20055;-86
2021/09/02 04:08:59;;;;;;;0.50;0.50;;;15.40;99.90;;;;;;5106935;27;20459;-84
2021/09/02 04:11:24;;;;;;;0.10;0.10;;;15.40;99.90;;;;;;5100439;28;20051;-83
2021/09/02 04:13:50;;;;;;;0.53;0.50;;;15.40;99.90;;;;;;5101486;27;20032;-87
2021/09/02 04:16:16;;;;;;;0.30;0.30;;;15.40;99.90;;;;;;5096883;28;20040;-86
2021/09/02 04:18:41;;;;;;;0.30;0.30;;;15.40;99.90;;;;;;5104421;27;20039;-83
2021/09/02 04:21:08;;;;;;;0.67;0.67;;;15.30;99.90;;;;;;5113284;27;20037;-84
2021/09/02 04:23:34;;;;;;;0.38;0.38;;;15.40;99.90;;;;;;5104954;27;20500;-84
2021/09/02 04:26:01;;;;;;;0.10;0.10;;;15.30;99.90;;;;;;5110609;27;20035;-87
2021/09/02 04:28:27;;;;;;;1.13;0.38;;;15.40;99.90;;;;;;5100381;28;20024;-88
2021/09/02 04:30:53;;;;;;;0.40;0.40;;;15.40;99.90;;;;;;5104162;28;20085;-86
2021/09/02 04:33:19;;;;;;;0.37;0.37;;;15.30;99.90;;;;;;5113585;27;20889;-86
2021/09/02 04:35:44;;;;;;;0.10;0.10;;;15.30;99.90;;;;;;5106126;27;20088;-87
2021/09/02 04:38:10;;;;;;;0.77;0.60;;;15.30;99.90;;;;;;5100230;28;20477;-87
2021/09/02 04:40:36;;;;;;;0.77;0.67;;;15.30;99.90;;;;;;5099652;27;20776;-83
2021/09/02 04:43:02;;;;;;;0.47;0.47;;;15.30;99.90;;;;;;5101781;28;20107;-84
2021/09/02 04:45:28;;;;;;;0.25;0.25;;;15.30;99.90;;;;;;5105101;27;20106;-82
2021/09/02 04:47:54;;;;;;;0.32;0.30;;;15.30;99.90;;;;;;5114362;27;20563;-83
2021/09/02 04:50:20;;;;;;;0.10;0.10;;;15.30;99.90;;;;;;5095858;28;20038;-83
2021/09/02 04:52:46;;;;;;;0.30;0.30;;;15.30;99.90;;;;;;5103652;27;20414;-85
2021/09/02 04:55:13;;;;;;;0.10;0.10;;;15.30;99.90;;;;;;5110113;27;20039;-86
2021/09/02 04:57:40;;;;;;;0.20;0.20;;;15.30;99.90;;;;;;5103015;27;20071;-85
2021/09/02 05:00:07;;;;;;;0.10;0.10;;;15.20;99.90;;;;;;5102252;28;20036;-87
2021/09/02 05:02:33;;;;;;;0.57;0.50;;;15.10;99.90;;;;;;5093822;27;20036;-86
2021/09/02 05:04:59;;;;;;;0.20;0.20;;;15.10;99.90;;;;;;5098097;28;20030;-85
2021/09/02 05:07:24;;;;;;;1.70;0.77;;;15.10;99.90;;;;;;5105708;27;20059;-85
2021/09/02 05:09:50;;;;;;;0.37;0.37;;;15.10;99.90;;;;;;5103600;28;20035;-83
2021/09/02 05:12:16;;;;;;;0.13;0.10;;;15.00;99.90;;;;;;5102975;28;20035;-83
2021/09/02 05:14:43;;;;;;;0.32;0.32;;;15.10;99.90;;;;;;5095721;28;20054;-82
2021/09/02 05:17:09;;;;;;;;;;;15.10;99.90;;;;;;5108367;27;20432;-84
2021/09/02 05:19:35;;;;;;;0.53;0.50;;;15.10;99.90;;;;;;5097012;28;19919;-83
2021/09/02 05:22:01;;;;;;;0.10;0.10;;;15.20;99.90;;;;;;5103682;28;20025;-83
2021/09/02 05:24:27;;;;;;;0.68;0.68;;;15.20;99.90;;;;;;5111568;27;20475;-84
2021/09/02 05:26:52;;;;;;;1.17;0.70;;;15.30;99.90;;;;;;5106950;27;20108;-82
2021/09/02 05:29:18;;;;;;;0.30;0.30;;;15.30;99.90;;;;;;5099134;28;20027;-86
2021/09/02 05:31:44;;;;;;;0.10;0.10;;;15.30;99.90;;;;;;5101398;27;20027;-86
2021/09/02 05:34:10;;;;;;;0.50;0.50;;;15.50;99.90;;;;;;5104605;27;20677;-85
2021/09/02 05:36:36;;;;;;;0.30;0.30;;;15.60;99.90;;;;;;5101121;27;20039;-87
2021/09/02 05:39:03;;;;;;;0.13;0.13;;;15.60;99.90;;;;;;5102456;28;20051;-86
2021/09/02 05:41:29;;;;;;;1.02;0.90;;;15.50;99.90;;;;;;5099704;27;20034;-85
2021/09/02 05:43:54;;;;;;;0.30;0.30;;;15.60;99.90;;;;;;5104457;27;20030;-86
2021/09/02 05:46:20;;;;;;;0.10;0.10;;;15.70;99.90;;;;;;5100139;28;20031;-86
2021/09/02 05:48:46;;;;;;;3.73;1.03;;;16.10;99.90;;;;;;5102774;28;20035;-86
2021/09/02 05:51:11;;;;;;;0.20;0.20;;;16.80;99.90;;;;;;5105238;27;20032;-86
2021/09/02 05:53:37;;;;;;;0.30;0.30;;;17.30;99.90;;;;;;5103042;27;20659;-89
2021/09/02 05:56:04;;;;;;;0.10;0.10;;;17.10;99.90;;;;;;5102191;27;20676;-94
2021/09/02 05:58:30;;;;;;;0.47;0.25;;;17.30;99.90;;;;;;5112013;27;20508;-93
2021/09/02 06:00:56;;;;;;;0.93;0.23;;;17.60;99.90;;;;;;5117609;27;20036;-86
2021/09/02 06:03:22;;;;;;;0.50;0.40;;;17.10;99.90;;;;;;5104796;27;20027;-85
2021/09/02 06:05:48;;;;;;;0.20;0.20;;;16.50;99.90;;;;;;5106003;27;20706;-84
2021/09/02 06:08:13;;;;;;;0.53;0.40;;;16.30;99.90;;;;;;5108838;27;20032;-84
2021/09/02 06:10:39;;;;;;;0.10;0.10;;;16.50;99.90;;;;;;5110747;27;20051;-84
2021/09/02 06:13:04;;;;;;;0.40;0.40;;;16.70;99.90;;;;;;5101218;28;20497;-83
2021/09/02 06:15:31;;;;;;;0.20;0.20;;;16.90;99.90;;;;;;5101780;27;20031;-82
2021/09/02 06:17:57;;;;;;;0.95;0.60;;;17.70;99.90;;;;;;5101756;27;20083;-82
2021/09/02 06:20:24;;;;;;;0.47;0.40;;;17.90;99.90;;;;;;5101340;27;20036;-83
2021/09/02 06:22:50;;;;;;;2.38;0.98;;;17.80;99.90;;;;;;5107544;27;20131;-83
2021/09/02 06:25:16;;;;;;;0.40;0.37;;;18.70;99.90;;;;;;5099328;28;20039;-83
2021/09/02 06:27:42;;;;;;;0.27;0.27;;;20.60;95.70;;;;;;5108548;27;20528;-83
2021/09/02 06:30:08;;;;;;;0.13;0.13;;;21.50;93.80;;;;;;5088404;27;20028;-83
2021/09/02 06:32:33;;;;;;;0.08;0.08;;;21.00;93.20;;;;;;5102257;27;20035;-82
2021/09/02 06:34:59;;;;;;;0.20;0.20;;;21.00;93.30;;;;;;5100779;27;20032;-84
2021/09/02 06:37:25;;;;;;;0.10;0.10;;;21.30;92.20;;;;;;5100221;27;20054;-83
2021/09/02 06:39:50;;;;;;;0.00;0.00;;;20.70;92.50;;;;;;5116007;27;20723;-83
2021/09/02 06:42:16;;;;;;;1.73;0.40;;;21.70;92.00;;;;;;5088858;27;20508;-82
2021/09/02 06:44:42;;;;;;;0.10;0.10;;;22.60;88.00;;;;;;5096715;28;20039;-83
2021/09/02 06:47:07;;;;;;;0.40;0.40;;;22.20;88.90;;;;;;5104682;28;20549;-83
2021/09/02 06:49:33;;;;;;;0.67;0.40;;;22.40;87.40;;;;;;5110848;27;20090;-84
2021/09/02 06:51:59;;;;;;;0.20;0.20;;;22.50;85.70;;;;;;5096825;28;20024;-83
2021/09/02 06:54:25;;;;;;;0.83;0.73;;;22.90;84.80;;;;;;5103612;27;20027;-82
2021/09/02 06:56:50;;;;;;;0.30;0.30;;;23.30;83.70;;;;;;5107267;28;20627;-83
2021/09/02 06:59:16;;;;;;;0.03;0.03;;;23.30;81.70;;;;;;5105435;28;20031;-83
2021/09/02 07:01:42;;;;;;;0.30;0.30;;;23.00;81.80;;;;;;5104258;28;20031;-79
2021/09/02 07:04:07;;;;;;;0.00;0.00;;;21.90;84.60;;;;;;5107558;28;20024;-80
2021/09/02 07:06:33;;;;;;;4.10;0.40;;;21.90;85.90;;;;;;5103854;28;20138;-80
2021/09/02 07:08:59;;;;;;;0.17;0.17;;;23.10;92.40;;;;;;5098949;28;20059;-80
2021/09/02 07:11:25;;;;;;;0.00;0.00;;;23.00;79.30;;;;;;5100723;28;20019;-82
2021/09/02 07:13:50;;;;;;;0.00;0.00;;;22.90;76.00;;;;;;5097006;28;20097;-82
2021/09/02 07:16:16;;;;;;;0.40;0.40;;;23.70;78.20;;;;;;5089136;28;20051;-81
2021/09/02 07:18:42;;;;;;;0.17;0.17;;;24.30;75.40;;;;;;5098509;28;20073;-86
2021/09/02 07:21:07;;;;;;;0.30;0.30;;;24.00;74.20;;;;;;5088246;28;20032;-85
2021/09/02 07:23:33;;;;;;;1.60;0.57;;;24.40;73.00;;;;;;5096041;28;20019;-85
2021/09/02 07:25:59;;;;;;;0.37;0.37;;;24.40;71.00;;;;;;5097188;28;20078;-85
2021/09/02 07:28:24;;;;;;;0.30;0.10;;;24.90;71.30;;;;;;5097830;28;20267;-83
2021/09/02 07:30:50;;;;;;;0.10;0.10;;;25.40;67.00;;;;;;5101715;28;20165;-83
2021/09/02 07:33:16;;;;;;;0.00;0.00;;;27.00;62.40;;;;;;5099861;28;20051;-83
2021/09/02 07:35:42;;;;;;;0.00;0.00;;;26.90;59.00;;;;;;5097828;28;20035;-83
2021/09/02 07:38:08;;;;;;;0.22;0.22;;;26.00;61.80;;;;;;5097486;28;20051;-83
2021/09/02 07:40:34;;;;;;;0.15;0.15;;;26.40;60.30;;;;;;5097151;28;20063;-83
2021/09/02 07:43:00;;;;;;;;;;;26.90;59.70;;;;;;5101622;28;20509;-83
2021/09/02 07:45:25;;;;;;;0.10;0.10;;;27.10;56.30;;;;;;5086802;28;19908;-83
2021/09/02 07:47:51;;;;;;;0.00;0.00;;;27.30;68.00;;;;;;5097863;28;20489;-85
2021/09/02 07:50:16;;;;;;;0.20;0.20;;;27.20;52.70;;;;;;5097414;28;20032;-83
2021/09/02 07:52:42;;;;;;;0.20;0.20;;;28.00;52.30;;;;;;5098452;28;20700;-83
2021/09/02 07:55:09;;;;;;;0.35;0.35;;;27.40;51.90;;;;;;5085440;28;20296;-84
2021/09/02 07:57:35;;;;;;;7.05;0.30;;;27.20;50.90;;;;;;5100033;28;20055;-84
2021/09/02 08:00:03;;;;;;;1.10;1.00;;;28.50;50.50;;;;;;5099181;28;20057;-84
2021/09/02 08:02:29;;;;;;;0.10;0.10;;;28.10;49.80;;;;;;5097434;28;20403;-83
2021/09/02 08:04:55;;;;;;;0.40;0.40;;;27.90;49.30;;;;;;5100650;28;20547;-84
2021/09/02 08:07:20;;;;;;;0.10;0.10;;;28.20;47.00;;;;;;5101608;28;20046;-83
2021/09/02 08:09:46;;;;;;;0.32;0.32;;;29.40;44.90;;;;;;5103095;28;20501;-83
2021/09/02 08:12:13;;;;;;;0.10;0.10;;;29.10;43.20;;;;;;5091808;28;20035;-83
2021/09/02 08:14:39;;;;;;;0.03;0.03;;;29.10;42.80;;;;;;5099216;28;20040;-84
2021/09/02 08:17:05;;;;;;;0.30;0.30;;;29.30;41.70;;;;;;5100608;28;20076;-83
2021/09/02 08:19:31;;;;;;;0.10;0.10;;;30.60;40.30;;;;;;5100542;28;20498;-83
2021/09/02 08:21:56;;;;;;;0.20;0.20;;;30.90;37.20;;;;;;5105165;28;20036;-84
2021/09/02 08:24:22;;;;;;;0.00;0.00;;;31.80;31.70;;;;;;5102628;28;20082;-83
2021/09/02 08:26:49;;;;;;;0.10;0.10;;;31.40;27.10;;;;;;5100145;28;20035;-85
2021/09/02 08:29:15;;;;;;;0.20;0.20;;;29.40;36.40;;;;;;5100312;28;20078;-83
2021/09/02 08:31:40;;;;;;;0.30;0.17;;;27.50;40.40;;;;;;5100652;27;20032;-83
2021/09/02 08:34:06;;;;;;;0.00;0.00;;;28.30;41.30;;;;;;5102616;28;20061;-83
2021/09/02 08:36:32;;;;;;;0.30;0.27;;;28.60;38.90;;;;;;5102634;28;20086;-83
2021/09/02 08:38:58;;;;;;;0.38;0.38;;;28.10;40.40;;;;;;5101112;28;20269;-84
2021/09/02 08:41:23;;;;;;;0.30;0.30;;;30.30;38.90;;;;;;5099489;28;20227;-84
2021/09/02 08:43:50;;;;;;;0.35;0.30;;;32.20;31.70;;;;;;5099712;28;20083;-83
2021/09/02 08:46:16;;;;;;;0.98;0.45;;;33.80;24.70;;;;;;5101278;28;20044;-84
2021/09/02 08:48:48;;;;;;;0.50;0.22;;;34.60;28.90;;;;;;5102094;28;20101;-83
2021/09/02 08:51:15;;;;;;;0.00;0.00;;;33.50;25.90;;;;;;5101483;28;20834;-83
2021/09/02 08:53:42;;;;;;;0.00;0.00;;;33.00;24.60;;;;;;5090272;27;20131;-84
2021/09/02 08:56:08;;;;;;;0.10;0.10;;;34.20;22.20;;;;;;5088855;28;20081;-83
2021/09/02 08:58:33;;;;;;;0.32;0.32;;;33.00;23.80;;;;;;5088953;28;20779;-83
2021/09/02 09:00:59;;;;;;;0.17;0.17;;;31.20;29.10;;;;;;5085676;28;20039;-83
2021/09/02 09:03:26;;;;;;;0.08;0.08;;;29.40;32.40;;;;;;5088723;27;20035;-84
2021/09/02 09:05:58;;;;;;;0.30;0.30;;;27.60;36.90;;;;;;5089875;27;20453;-83
2021/09/02 09:08:34;;;;;;;0.52;0.40;;;27.30;37.60;;;;;;5089169;28;20460;-83
2021/09/02 09:11:21;;;;;;;0.13;0.08;;;28.30;35.10;;;;;;5089645;27;20034;-84
2021/09/02 09:13:47;;;;;;;0.10;0.10;;;29.10;32.70;;;;;;5089352;28;20620;-83
2021/09/02 09:16:14;;;;;;;0.00;0.00;;;30.50;30.60;;;;;;5087382;28;20102;-84
2021/09/02 09:18:40;;;;;;;;;;;29.90;31.50;;;;;;5086994;28;20121;-84
2021/09/02 09:21:12;;;;;;;0.00;0.00;;;30.00;30.20;;;;;;5088610;28;19915;-84
2021/09/02 09:23:58;;;;;;;0.17;0.17;;;30.90;26.20;;;;;;5089233;27;20060;-83
2021/09/02 09:26:25;;;;;;;0.20;0.20;;;35.50;18.70;;;;;;5095797;27;20032;-83
2021/09/02 09:28:51;;;;;;;0.30;0.30;;;34.30;18.40;;;;;;5099095;28;20036;-84
2021/09/02 09:31:43;;;;;;;0.10;0.10;;;30.90;21.30;;;;;;5100229;28;20035;-83
2021/09/02 09:34:09;;;;;;;0.00;0.00;;;33.60;15.70;;;;;;5085520;28;20099;-83
2021/09/02 09:36:37;;;;;;;0.00;0.00;;;33.00;17.70;;;;;;5101713;28;20138;-82
2021/09/02 09:39:14;;;;;;;0.15;0.15;;;34.30;17.50;;;;;;5100982;28;20128;-84
2021/09/02 09:41:42;;;;;;;0.00;0.00;;;34.90;15.10;;;;;;5098333;28;20031;-83
2021/09/02 09:44:25;;;;;;;1.13;0.32;;;36.20;10.60;;;;;;5099171;28;20043;-83
2021/09/02 09:47:09;;;;;;;0.60;0.22;;;30.70;20.40;;;;;;5098911;27;20020;-83
2021/09/02 09:49:43;;;;;;;13.38;0.88;;;28.00;25.50;;;;;;5098353;28;20028;-83
2021/09/02 09:52:30;;;;;;;0.75;0.55;;;27.90;27.00;;;;;;5101393;28;20778;-83
2021/09/02 09:55:11;;;;;;;0.00;0.00;;;27.80;26.60;;;;;;5087344;28;20035;-83
2021/09/02 09:57:39;;;;;;;0.00;0.00;;;26.60;28.90;;;;;;5101529;28;20047;-83
2021/09/02 10:00:15;;;;;;;0.52;0.28;;;26.40;30.00;;;;;;5089478;28;20024;-83
2021/09/02 10:02:43;;;;;;;0.35;0.35;;;26.30;30.00;;;;;;5097421;28;20513;-82
2021/09/02 10:05:12;;;;;;;0.17;0.10;;;26.40;29.40;;;;;;5098327;28;20028;-83
2021/09/02 10:07:40;;;;;;;0.43;0.43;;;26.50;29.80;;;;;;5098876;28;20036;-83
2021/09/02 10:10:09;;;;;;;0.00;0.00;;;26.50;30.50;;;;;;5101627;28;20054;-83
2021/09/02 10:12:35;;;;;;;0.17;0.13;;;26.90;28.80;;;;;;5101285;28;20035;-84
2021/09/02 10:15:15;;;;;;;0.00;0.00;;;26.50;28.80;;;;;;5100097;28;20020;-83
2021/09/02 10:17:41;;;;;;;0.00;0.00;;;26.90;28.70;;;;;;5098359;28;20119;-83
2021/09/02 10:20:17;;;;;;;0.08;0.08;;;26.70;29.00;;;;;;5097752;28;20084;-83
2021/09/02 10:22:44;;;;;;;0.10;0.10;;;25.90;31.30;;;;;;5097307;28;20036;-83
2021/09/02 10:25:35;;;;;;;0.00;0.00;;;25.50;31.00;;;;;;5100380;28;20149;-83
2021/09/02 10:28:00;;;;;;;0.00;0.00;;;25.60;31.20;;;;;;5087064;28;20023;-83
2021/09/02 10:30:27;;;;;;;0.07;0.07;;;25.60;32.30;;;;;;5088968;28;20028;-84
2021/09/02 10:32:53;;;;;;;;;;;25.50;32.20;;;;;;5096811;27;20035;-83
2021/09/02 10:35:19;;;;;;;0.03;0.00;;;26.00;31.50;;;;;;5092125;28;19918;-82
2021/09/02 10:37:44;;;;;;;0.07;0.03;;;25.80;30.40;;;;;;5089746;28;20051;-83
2021/09/02 10:40:16;;;;;;;0.00;0.00;;;26.00;29.70;;;;;;5084358;28;20020;-82
2021/09/02 10:42:47;;;;;;;0.10;0.05;;;25.70;31.10;;;;;;5084402;28;20040;-83
2021/09/02 10:45:25;;;;;;;0.00;0.00;;;25.80;31.00;;;;;;5086450;28;20025;-82
2021/09/02 10:48:17;;;;;;;0.20;0.20;;;26.60;29.20;;;;;;5087209;28;20047;-82
2021/09/02 10:50:46;;;;;;;1.63;0.85;;;25.50;31.50;;;;;;5086900;28;20039;-82
2021/09/02 10:53:17;;;;;;;0.00;0.00;;;25.50;31.60;;;;;;5087140;28;20081;-83
2021/09/02 10:55:52;;;;;;;0.35;0.10;;;25.60;31.60;;;;;;5087319;28;20039;-83
2021/09/02 10:58:48;;;;;;;0.30;0.22;;;26.10;31.20;;;;;;5087063;28;20097;-83
2021/09/02 11:01:23;;;;;;;0.32;0.32;;;25.30;32.70;;;;;;5085491;28;20081;-84
2021/09/02 11:03:49;;;;;;;0.32;0.20;;;25.40;32.10;;;;;;5083309;28;20740;-84
2021/09/02 11:06:15;;;;;;;0.00;0.00;;;24.80;34.00;;;;;;5087434;28;20894;-83
2021/09/02 11:08:41;;;;;;;0.10;0.10;;;24.50;33.70;;;;;;5087369;28;20050;-84
2021/09/02 11:11:19;;;;;;;0.17;0.17;;;24.70;33.90;;;;;;5090809;28;20035;-84
2021/09/02 11:13:48;;;;;;;0.08;0.08;;;25.30;32.80;;;;;;5088950;28;20126;-84
2021/09/02 11:16:20;;;;;;;0.00;0.00;;;24.80;34.00;;;;;;5099284;28;20527;-84
2021/09/02 11:18:48;;;;;;;0.00;0.00;;;24.80;34.00;;;;;;5099748;28;20199;-85
2021/09/02 11:21:14;;;;;;;0.00;0.00;;;24.80;34.30;;;;;;5088643;28;20024;-84
2021/09/02 11:23:41;;;;;;;0.10;0.10;;;24.30;36.60;;;;;;5096259;28;20032;-84
2021/09/02 11:26:07;;;;;;;0.00;0.00;;;24.40;34.70;;;;;;5086906;28;20028;-84
2021/09/02 11:28:47;;;;;;;0.22;0.20;;;23.90;36.30;;;;;;5087169;28;20036;-84
2021/09/02 11:31:13;;;;;;;0.10;0.10;;;24.00;36.80;;;;;;5102139;28;20114;-84
2021/09/02 11:33:50;;;;;;;0.10;0.10;;;24.20;35.50;;;;;;5084317;28;20046;-84
2021/09/02 11:36:16;;;;;;;0.38;0.15;;;24.10;36.80;;;;;;5096776;28;20520;-83
2021/09/02 11:38:42;;;;;;;0.38;0.30;;;24.30;36.10;;;;;;5098439;27;20034;-84
2021/09/02 11:41:16;;;;;;;0.10;0.10;;;24.20;36.40;;;;;;5095641;28;20028;-84
2021/09/02 11:43:42;;;;;;;0.00;0.00;;;24.00;37.20;;;;;;5101876;28;20047;-85
2021/09/02 11:46:08;;;;;;;0.43;0.20;;;24.60;36.10;;;;;;5104093;28;20031;-84
2021/09/02 11:48:50;;;;;;;0.00;0.00;;;24.50;36.10;;;;;;5137208;27;20032;-85
2021/09/02 11:51:27;;;;;;;0.10;0.10;;;23.90;39.50;;;;;;5092607;28;20027;-85
2021/09/02 11:54:08;;;;;;;0.00;0.00;;;23.90;38.30;;;;;;5093345;28;20032;-84
2021/09/02 11:56:35;;;;;;;0.10;0.10;;;23.90;38.30;;;;;;5094480;28;20448;-85
2021/09/02 11:59:05;;;;;;;0.00;0.00;;;24.00;38.80;;;;;;5097418;28;20434;-85
2021/09/02 12:01:31;;;;;;;0.00;0.00;;;24.00;38.20;;;;;;5089998;28;20028;-85
2021/09/02 12:04:00;;;;;;;0.00;0.00;;;23.70;38.50;;;;;;5105625;28;20098;-84
2021/09/02 12:06:30;;;;;;;0.00;0.00;;;23.90;38.50;;;;;;5103282;28;20077;-84
2021/09/02 12:08:58;;;;;;;0.00;0.00;;;23.70;38.40;;;;;;5105441;28;20101;-84
2021/09/02 12:11:24;;;;;;;0.17;0.17;;;23.70;39.20;;;;;;5101087;28;20031;-85
2021/09/02 12:13:52;;;;;;;0.00;0.00;;;23.70;38.70;;;;;;5100779;28;20038;-84
2021/09/02 12:16:19;;;;;;;0.55;0.52;;;23.70;38.30;;;;;;5101483;28;20040;-84
2021/09/02 12:18:48;;;;;;;1.42;0.28;;;23.70;39.40;;;;;;5102700;28;20027;-84
2021/09/02 12:21:19;;;;;;;0.00;0.00;;;23.40;39.10;;;;;;5086140;28;20032;-84
2021/09/02 12:23:53;;;;;;;0.10;0.10;;;23.30;40.40;;;;;;5091080;28;20444;-84
2021/09/02 12:26:24;;;;;;;0.00;0.00;;;23.00;40.90;;;;;;5095751;28;20153;-85
2021/09/02 12:28:55;;;;;;;0.00;0.00;;;23.30;41.30;;;;;;5099612;28;20069;-84
2021/09/02 12:31:24;;;;;;;0.68;0.20;;;23.20;41.70;;;;;;5090204;28;20027;-84
2021/09/02 12:34:00;;;;;;;0.70;0.20;;;23.00;42.20;;;;;;5087193;27;20028;-85
2021/09/02 12:36:27;;;;;;;0.00;0.00;;;23.40;41.80;;;;;;5098650;28;20158;-84
2021/09/02 12:38:53;;;;;;;0.03;0.03;;;23.30;42.10;;;;;;5108024;27;20031;-84
2021/09/02 12:41:24;;;;;;;0.00;0.00;;;23.00;43.00;;;;;;5097272;28;20725;-84
2021/09/02 12:44:09;;;;;;;0.25;0.20;;;23.20;43.30;;;;;;5091418;28;20111;-84
2021/09/02 12:46:52;;;;;;;2.15;0.50;;;22.80;43.90;;;;;;5093530;28;20042;-85
2021/09/02 12:49:20;;;;;;;0.00;0.00;;;23.10;44.00;;;;;;5089208;28;20130;-85
2021/09/02 12:52:05;;;;;;;0.00;0.00;;;23.30;43.70;;;;;;5088450;28;20135;-83